sensor_id;sensor_type;location;lat;lon;timestamp;P1;durP1;ratioP1;P2;durP2;ratioP2
1775;SDS011;885;42.626;23.200;2023-02-23T00:02:15;5.70;;;4.40;;
1775;SDS011;885;42.626;23.200;2023-02-23T00:04:42;5.73;;;3.90;;
1775;SDS011;885;42.626;23.200;2023-02-23T00:07:08;5.10;;;4.13;;
1775;SDS011;885;42.626;23.200;2023-02-23T00:09:35;8.00;;;4.10;;
1775;SDS011;885;42.626;23.200;2023-02-23T00:12:02;5.00;;;4.40;;
1775;SDS011;885;42.626;23.200;2023-02-23T00:14:33;4.43;;;4.00;;
1775;SDS011;885;42.626;23.200;2023-02-23T00:17:03;6.60;;;4.50;;
1775;SDS011;885;42.626;23.200;2023-02-23T00:19:34;5.43;;;4.27;;
1775;SDS011;885;42.626;23.200;2023-02-23T00:22:01;4.30;;;3.90;;
1775;SDS011;885;42.626;23.200;2023-02-23T00:24:28;4.90;;;4.17;;
1775;SDS011;885;42.626;23.200;2023-02-23T00:26:55;4.93;;;3.83;;
1775;SDS011;885;42.626;23.200;2023-02-23T00:29:22;5.13;;;4.57;;
1775;SDS011;885;42.626;23.200;2023-02-23T00:31:50;5.27;;;4.60;;
1775;SDS011;885;42.626;23.200;2023-02-23T00:34:19;5.80;;;5.10;;
1775;SDS011;885;42.626;23.200;2023-02-23T00:36:48;5.10;;;4.60;;
1775;SDS011;885;42.626;23.200;2023-02-23T00:39:18;6.70;;;5.10;;
1775;SDS011;885;42.626;23.200;2023-02-23T00:41:48;5.00;;;4.30;;
1775;SDS011;885;42.626;23.200;2023-02-23T00:44:16;7.00;;;5.30;;
1775;SDS011;885;42.626;23.200;2023-02-23T00:46:43;5.50;;;4.30;;
1775;SDS011;885;42.626;23.200;2023-02-23T00:49:13;5.73;;;4.33;;
1775;SDS011;885;42.626;23.200;2023-02-23T00:51:42;7.60;;;4.57;;
1775;SDS011;885;42.626;23.200;2023-02-23T00:54:09;5.87;;;4.13;;
1775;SDS011;885;42.626;23.200;2023-02-23T00:56:38;5.10;;;4.60;;
1775;SDS011;885;42.626;23.200;2023-02-23T00:59:05;5.07;;;4.43;;
1775;SDS011;885;42.626;23.200;2023-02-23T01:01:32;7.83;;;5.00;;
1775;SDS011;885;42.626;23.200;2023-02-23T01:04:01;7.93;;;5.20;;
1775;SDS011;885;42.626;23.200;2023-02-23T01:06:28;6.90;;;4.87;;
1775;SDS011;885;42.626;23.200;2023-02-23T01:08:57;5.20;;;4.37;;
1775;SDS011;885;42.626;23.200;2023-02-23T01:11:28;4.53;;;4.13;;
1775;SDS011;885;42.626;23.200;2023-02-23T01:13:57;6.40;;;4.50;;
1775;SDS011;885;42.626;23.200;2023-02-23T01:16:26;12.67;;;4.67;;
1775;SDS011;885;42.626;23.200;2023-02-23T01:18:54;5.30;;;4.63;;
1775;SDS011;885;42.626;23.200;2023-02-23T01:21:22;5.83;;;4.70;;
1775;SDS011;885;42.626;23.200;2023-02-23T01:23:52;6.60;;;4.47;;
1775;SDS011;885;42.626;23.200;2023-02-23T01:26:21;6.37;;;4.43;;
1775;SDS011;885;42.626;23.200;2023-02-23T01:28:49;8.40;;;4.50;;
1775;SDS011;885;42.626;23.200;2023-02-23T01:31:17;4.80;;;4.40;;
1775;SDS011;885;42.626;23.200;2023-02-23T01:33:44;5.30;;;4.80;;
1775;SDS011;885;42.626;23.200;2023-02-23T01:36:11;5.37;;;4.77;;
1775;SDS011;885;42.626;23.200;2023-02-23T01:38:38;5.43;;;4.93;;
1775;SDS011;885;42.626;23.200;2023-02-23T01:41:05;8.00;;;4.80;;
1775;SDS011;885;42.626;23.200;2023-02-23T01:43:34;5.20;;;4.70;;
1775;SDS011;885;42.626;23.200;2023-02-23T01:46:01;5.47;;;4.10;;
1775;SDS011;885;42.626;23.200;2023-02-23T01:48:29;5.20;;;4.70;;
1775;SDS011;885;42.626;23.200;2023-02-23T01:50:59;6.27;;;5.37;;
1775;SDS011;885;42.626;23.200;2023-02-23T01:53:31;6.50;;;5.20;;
1775;SDS011;885;42.626;23.200;2023-02-23T01:56:02;4.93;;;4.53;;
1775;SDS011;885;42.626;23.200;2023-02-23T01:58:36;4.77;;;4.30;;
1775;SDS011;885;42.626;23.200;2023-02-23T02:01:07;7.30;;;5.70;;
1775;SDS011;885;42.626;23.200;2023-02-23T02:03:36;6.20;;;5.60;;
1775;SDS011;885;42.626;23.200;2023-02-23T02:06:05;6.67;;;6.03;;
1775;SDS011;885;42.626;23.200;2023-02-23T02:08:35;10.73;;;7.90;;
1775;SDS011;885;42.626;23.200;2023-02-23T02:11:09;9.27;;;7.93;;
1775;SDS011;885;42.626;23.200;2023-02-23T02:13:51;12.10;;;10.20;;
1775;SDS011;885;42.626;23.200;2023-02-23T02:19:30;8.80;;;8.00;;
1775;SDS011;885;42.626;23.200;2023-02-23T02:22:35;9.70;;;8.67;;
1775;SDS011;885;42.626;23.200;2023-02-23T02:25:37;9.93;;;8.00;;
1775;SDS011;885;42.626;23.200;2023-02-23T02:28:34;14.90;;;9.30;;
1775;SDS011;885;42.626;23.200;2023-02-23T02:34:45;10.33;;;7.23;;
1775;SDS011;885;42.626;23.200;2023-02-23T02:37:43;5.70;;;5.20;;
1775;SDS011;885;42.626;23.200;2023-02-23T02:40:21;6.10;;;5.13;;
1775;SDS011;885;42.626;23.200;2023-02-23T02:42:55;9.40;;;5.40;;
1775;SDS011;885;42.626;23.200;2023-02-23T02:45:37;6.57;;;5.90;;
1775;SDS011;885;42.626;23.200;2023-02-23T02:48:11;6.50;;;5.80;;
1775;SDS011;885;42.626;23.200;2023-02-23T02:50:44;6.30;;;5.10;;
1775;SDS011;885;42.626;23.200;2023-02-23T02:53:19;5.13;;;4.63;;
1775;SDS011;885;42.626;23.200;2023-02-23T02:55:52;6.07;;;5.47;;
1775;SDS011;885;42.626;23.200;2023-02-23T02:58:23;9.47;;;6.30;;
1775;SDS011;885;42.626;23.200;2023-02-23T03:00:51;7.33;;;6.30;;
1775;SDS011;885;42.626;23.200;2023-02-23T03:03:37;11.70;;;8.27;;
1775;SDS011;885;42.626;23.200;2023-02-23T03:06:25;11.20;;;9.80;;
1775;SDS011;885;42.626;23.200;2023-02-23T03:09:18;11.43;;;10.03;;
1775;SDS011;885;42.626;23.200;2023-02-23T03:12:10;10.73;;;9.63;;
1775;SDS011;885;42.626;23.200;2023-02-23T03:15:08;11.40;;;8.50;;
1775;SDS011;885;42.626;23.200;2023-02-23T03:18:06;9.63;;;7.13;;
1775;SDS011;885;42.626;23.200;2023-02-23T03:21:02;8.90;;;6.67;;
1775;SDS011;885;42.626;23.200;2023-02-23T03:23:57;7.53;;;6.73;;
1775;SDS011;885;42.626;23.200;2023-02-23T03:26:51;8.43;;;7.63;;
1775;SDS011;885;42.626;23.200;2023-02-23T03:29:41;7.83;;;6.27;;
1775;SDS011;885;42.626;23.200;2023-02-23T03:32:36;5.60;;;5.10;;
1775;SDS011;885;42.626;23.200;2023-02-23T03:35:28;7.83;;;5.43;;
1775;SDS011;885;42.626;23.200;2023-02-23T03:38:18;5.73;;;5.13;;
1775;SDS011;885;42.626;23.200;2023-02-23T03:41:08;5.60;;;4.40;;
1775;SDS011;885;42.626;23.200;2023-02-23T03:43:57;7.80;;;5.20;;
1775;SDS011;885;42.626;23.200;2023-02-23T03:46:43;6.00;;;5.10;;
1775;SDS011;885;42.626;23.200;2023-02-23T03:49:31;5.43;;;4.93;;
1775;SDS011;885;42.626;23.200;2023-02-23T03:52:20;4.93;;;4.27;;
1775;SDS011;885;42.626;23.200;2023-02-23T03:55:11;5.20;;;4.70;;
1775;SDS011;885;42.626;23.200;2023-02-23T03:58:00;5.90;;;5.30;;
1775;SDS011;885;42.626;23.200;2023-02-23T04:00:49;5.80;;;5.20;;
1775;SDS011;885;42.626;23.200;2023-02-23T04:03:37;6.03;;;5.27;;
1775;SDS011;885;42.626;23.200;2023-02-23T04:06:26;9.33;;;4.77;;
1775;SDS011;885;42.626;23.200;2023-02-23T04:09:12;5.17;;;4.67;;
1775;SDS011;885;42.626;23.200;2023-02-23T04:11:57;6.47;;;5.80;;
1775;SDS011;885;42.626;23.200;2023-02-23T04:14:50;5.60;;;4.33;;
1775;SDS011;885;42.626;23.200;2023-02-23T04:17:24;6.33;;;5.50;;
1775;SDS011;885;42.626;23.200;2023-02-23T04:19:58;5.50;;;5.00;;
1775;SDS011;885;42.626;23.200;2023-02-23T04:22:25;6.67;;;5.90;;
1775;SDS011;885;42.626;23.200;2023-02-23T04:24:51;8.00;;;6.50;;
1775;SDS011;885;42.626;23.200;2023-02-23T04:27:18;9.23;;;6.90;;
1775;SDS011;885;42.626;23.200;2023-02-23T04:29:45;5.50;;;5.00;;
1775;SDS011;885;42.626;23.200;2023-02-23T04:32:13;5.87;;;5.33;;
1775;SDS011;885;42.626;23.200;2023-02-23T04:34:43;7.60;;;6.67;;
1775;SDS011;885;42.626;23.200;2023-02-23T04:37:10;7.93;;;6.20;;
1775;SDS011;885;42.626;23.200;2023-02-23T04:39:37;6.77;;;6.17;;
1775;SDS011;885;42.626;23.200;2023-02-23T04:42:04;7.53;;;6.50;;
1775;SDS011;885;42.626;23.200;2023-02-23T04:44:31;8.33;;;7.00;;
1775;SDS011;885;42.626;23.200;2023-02-23T04:46:58;6.63;;;5.87;;
1775;SDS011;885;42.626;23.200;2023-02-23T04:49:24;7.90;;;5.73;;
1775;SDS011;885;42.626;23.200;2023-02-23T04:51:53;5.67;;;4.53;;
1775;SDS011;885;42.626;23.200;2023-02-23T04:54:19;4.67;;;4.27;;
1775;SDS011;885;42.626;23.200;2023-02-23T04:56:46;5.83;;;5.23;;
1775;SDS011;885;42.626;23.200;2023-02-23T04:59:13;5.10;;;4.07;;
1775;SDS011;885;42.626;23.200;2023-02-23T05:01:39;6.10;;;5.50;;
1775;SDS011;885;42.626;23.200;2023-02-23T05:04:06;5.37;;;4.87;;
1775;SDS011;885;42.626;23.200;2023-02-23T05:06:33;6.63;;;4.33;;
1775;SDS011;885;42.626;23.200;2023-02-23T05:09:01;6.53;;;5.40;;
1775;SDS011;885;42.626;23.200;2023-02-23T05:11:30;39.03;;;19.60;;
1775;SDS011;885;42.626;23.200;2023-02-23T05:13:57;24.47;;;13.67;;
1775;SDS011;885;42.626;23.200;2023-02-23T05:16:23;20.17;;;11.77;;
1775;SDS011;885;42.626;23.200;2023-02-23T05:18:50;20.80;;;11.50;;
1775;SDS011;885;42.626;23.200;2023-02-23T05:21:17;13.97;;;10.70;;
1775;SDS011;885;42.626;23.200;2023-02-23T05:23:44;17.80;;;11.60;;
1775;SDS011;885;42.626;23.200;2023-02-23T05:26:13;11.17;;;7.97;;
1775;SDS011;885;42.626;23.200;2023-02-23T05:28:40;6.33;;;5.73;;
1775;SDS011;885;42.626;23.200;2023-02-23T05:31:08;6.20;;;5.33;;
1775;SDS011;885;42.626;23.200;2023-02-23T05:33:35;8.80;;;6.40;;
1775;SDS011;885;42.626;23.200;2023-02-23T05:36:06;9.43;;;8.10;;
1775;SDS011;885;42.626;23.200;2023-02-23T05:38:34;7.57;;;6.07;;
1775;SDS011;885;42.626;23.200;2023-02-23T05:41:03;6.80;;;5.73;;
1775;SDS011;885;42.626;23.200;2023-02-23T05:43:31;5.60;;;4.90;;
1775;SDS011;885;42.626;23.200;2023-02-23T05:45:58;5.93;;;5.40;;
1775;SDS011;885;42.626;23.200;2023-02-23T05:48:25;5.50;;;4.97;;
1775;SDS011;885;42.626;23.200;2023-02-23T05:50:52;7.97;;;5.00;;
1775;SDS011;885;42.626;23.200;2023-02-23T05:53:19;7.07;;;5.07;;
1775;SDS011;885;42.626;23.200;2023-02-23T05:55:45;6.07;;;5.47;;
1775;SDS011;885;42.626;23.200;2023-02-23T05:58:12;6.63;;;6.03;;
1775;SDS011;885;42.626;23.200;2023-02-23T06:00:41;7.07;;;6.37;;
1775;SDS011;885;42.626;23.200;2023-02-23T06:03:08;6.40;;;5.80;;
1775;SDS011;885;42.626;23.200;2023-02-23T06:05:35;8.27;;;7.43;;
1775;SDS011;885;42.626;23.200;2023-02-23T06:08:02;7.80;;;6.70;;
1775;SDS011;885;42.626;23.200;2023-02-23T06:10:28;12.30;;;8.90;;
1775;SDS011;885;42.626;23.200;2023-02-23T06:12:55;10.33;;;7.60;;
1775;SDS011;885;42.626;23.200;2023-02-23T06:15:22;9.73;;;7.93;;
1775;SDS011;885;42.626;23.200;2023-02-23T06:17:50;7.87;;;5.67;;
1775;SDS011;885;42.626;23.200;2023-02-23T06:20:17;9.27;;;7.43;;
1775;SDS011;885;42.626;23.200;2023-02-23T06:22:44;15.30;;;10.10;;
1775;SDS011;885;42.626;23.200;2023-02-23T06:25:12;23.33;;;14.20;;
1775;SDS011;885;42.626;23.200;2023-02-23T06:27:39;14.60;;;9.20;;
1775;SDS011;885;42.626;23.200;2023-02-23T06:30:06;10.60;;;8.43;;
1775;SDS011;885;42.626;23.200;2023-02-23T06:32:34;8.13;;;5.73;;
1775;SDS011;885;42.626;23.200;2023-02-23T06:35:04;10.53;;;6.33;;
1775;SDS011;885;42.626;23.200;2023-02-23T06:37:31;5.90;;;4.87;;
1775;SDS011;885;42.626;23.200;2023-02-23T06:39:58;6.90;;;6.20;;
1775;SDS011;885;42.626;23.200;2023-02-23T06:42:25;5.80;;;5.00;;
1775;SDS011;885;42.626;23.200;2023-02-23T06:44:51;5.90;;;5.23;;
1775;SDS011;885;42.626;23.200;2023-02-23T06:47:18;6.00;;;5.00;;
1775;SDS011;885;42.626;23.200;2023-02-23T06:49:45;6.50;;;5.10;;
1775;SDS011;885;42.626;23.200;2023-02-23T06:52:14;5.93;;;5.20;;
1775;SDS011;885;42.626;23.200;2023-02-23T06:54:41;7.00;;;5.13;;
1775;SDS011;885;42.626;23.200;2023-02-23T06:57:08;8.60;;;6.57;;
1775;SDS011;885;42.626;23.200;2023-02-23T06:59:35;6.80;;;5.60;;
1775;SDS011;885;42.626;23.200;2023-02-23T07:02:03;6.30;;;5.50;;
1775;SDS011;885;42.626;23.200;2023-02-23T07:04:30;6.20;;;5.60;;
1775;SDS011;885;42.626;23.200;2023-02-23T07:06:58;6.53;;;5.30;;
1775;SDS011;885;42.626;23.200;2023-02-23T07:09:26;7.13;;;5.40;;
1775;SDS011;885;42.626;23.200;2023-02-23T07:11:53;6.73;;;5.50;;
1775;SDS011;885;42.626;23.200;2023-02-23T07:14:20;6.40;;;5.53;;
1775;SDS011;885;42.626;23.200;2023-02-23T07:16:47;8.03;;;5.67;;
1775;SDS011;885;42.626;23.200;2023-02-23T07:19:14;8.23;;;5.40;;
1775;SDS011;885;42.626;23.200;2023-02-23T07:21:40;6.23;;;5.57;;
1775;SDS011;885;42.626;23.200;2023-02-23T07:24:07;6.80;;;5.10;;
1775;SDS011;885;42.626;23.200;2023-02-23T07:26:36;5.83;;;5.33;;
1775;SDS011;885;42.626;23.200;2023-02-23T07:29:05;8.83;;;6.03;;
1775;SDS011;885;42.626;23.200;2023-02-23T07:31:32;7.70;;;5.47;;
1775;SDS011;885;42.626;23.200;2023-02-23T07:33:59;5.10;;;4.60;;
1775;SDS011;885;42.626;23.200;2023-02-23T07:36:25;6.13;;;5.30;;
1775;SDS011;885;42.626;23.200;2023-02-23T07:38:52;6.40;;;5.00;;
1775;SDS011;885;42.626;23.200;2023-02-23T07:41:19;5.40;;;4.90;;
1775;SDS011;885;42.626;23.200;2023-02-23T07:43:48;10.27;;;5.13;;
1775;SDS011;885;42.626;23.200;2023-02-23T07:46:14;6.70;;;5.23;;
1775;SDS011;885;42.626;23.200;2023-02-23T07:48:41;5.20;;;4.47;;
1775;SDS011;885;42.626;23.200;2023-02-23T07:51:09;5.07;;;4.60;;
1775;SDS011;885;42.626;23.200;2023-02-23T07:53:37;7.67;;;5.60;;
1775;SDS011;885;42.626;23.200;2023-02-23T07:56:04;5.53;;;5.03;;
1775;SDS011;885;42.626;23.200;2023-02-23T07:58:32;6.20;;;4.60;;
1775;SDS011;885;42.626;23.200;2023-02-23T08:01:01;5.40;;;4.90;;
1775;SDS011;885;42.626;23.200;2023-02-23T08:03:27;4.83;;;4.43;;
1775;SDS011;885;42.626;23.200;2023-02-23T08:05:54;6.00;;;5.50;;
1775;SDS011;885;42.626;23.200;2023-02-23T08:08:21;5.47;;;4.97;;
1775;SDS011;885;42.626;23.200;2023-02-23T08:10:49;5.40;;;4.83;;
1775;SDS011;885;42.626;23.200;2023-02-23T08:13:16;5.70;;;5.10;;
1775;SDS011;885;42.626;23.200;2023-02-23T08:15:43;5.83;;;5.33;;
1775;SDS011;885;42.626;23.200;2023-02-23T08:18:11;6.37;;;5.77;;
1775;SDS011;885;42.626;23.200;2023-02-23T08:20:38;5.73;;;5.20;;
1775;SDS011;885;42.626;23.200;2023-02-23T08:23:05;5.97;;;5.27;;
1775;SDS011;885;42.626;23.200;2023-02-23T08:25:32;7.47;;;6.10;;
1775;SDS011;885;42.626;23.200;2023-02-23T08:27:58;8.03;;;6.60;;
1775;SDS011;885;42.626;23.200;2023-02-23T08:30:28;8.30;;;7.43;;
1775;SDS011;885;42.626;23.200;2023-02-23T08:32:55;7.53;;;6.27;;
1775;SDS011;885;42.626;23.200;2023-02-23T08:35:24;5.97;;;5.37;;
1775;SDS011;885;42.626;23.200;2023-02-23T08:37:50;5.73;;;5.13;;
1775;SDS011;885;42.626;23.200;2023-02-23T08:40:17;9.70;;;8.70;;
1775;SDS011;885;42.626;23.200;2023-02-23T08:42:44;8.00;;;7.20;;
1775;SDS011;885;42.626;23.200;2023-02-23T08:45:13;10.03;;;9.03;;
1775;SDS011;885;42.626;23.200;2023-02-23T08:47:40;7.97;;;7.17;;
1775;SDS011;885;42.626;23.200;2023-02-23T08:50:07;11.17;;;9.87;;
1775;SDS011;885;42.626;23.200;2023-02-23T08:52:36;12.50;;;10.27;;
1775;SDS011;885;42.626;23.200;2023-02-23T08:55:04;10.50;;;8.50;;
1775;SDS011;885;42.626;23.200;2023-02-23T08:57:32;8.83;;;7.93;;
1775;SDS011;885;42.626;23.200;2023-02-23T08:59:59;10.33;;;9.40;;
1775;SDS011;885;42.626;23.200;2023-02-23T09:02:26;15.57;;;11.27;;
1775;SDS011;885;42.626;23.200;2023-02-23T09:04:53;10.93;;;9.70;;
1775;SDS011;885;42.626;23.200;2023-02-23T09:07:20;11.13;;;10.00;;
1775;SDS011;885;42.626;23.200;2023-02-23T09:09:53;10.80;;;9.13;;
1775;SDS011;885;42.626;23.200;2023-02-23T09:12:20;11.90;;;10.70;;
1775;SDS011;885;42.626;23.200;2023-02-23T09:14:47;12.40;;;10.10;;
1775;SDS011;885;42.626;23.200;2023-02-23T09:17:15;13.90;;;10.70;;
1775;SDS011;885;42.626;23.200;2023-02-23T09:19:42;14.50;;;11.10;;
1775;SDS011;885;42.626;23.200;2023-02-23T09:22:09;13.50;;;11.97;;
1775;SDS011;885;42.626;23.200;2023-02-23T09:24:35;15.00;;;13.40;;
1775;SDS011;885;42.626;23.200;2023-02-23T09:27:04;14.87;;;13.30;;
1775;SDS011;885;42.626;23.200;2023-02-23T09:29:32;14.33;;;12.53;;
1775;SDS011;885;42.626;23.200;2023-02-23T09:32:01;14.03;;;12.50;;
1775;SDS011;885;42.626;23.200;2023-02-23T09:34:28;14.50;;;12.33;;
1775;SDS011;885;42.626;23.200;2023-02-23T09:36:55;16.90;;;12.40;;
1775;SDS011;885;42.626;23.200;2023-02-23T09:39:22;16.27;;;14.67;;
1775;SDS011;885;42.626;23.200;2023-02-23T09:41:59;18.60;;;16.03;;
1775;SDS011;885;42.626;23.200;2023-02-23T09:44:46;18.47;;;14.60;;
1775;SDS011;885;42.626;23.200;2023-02-23T09:47:27;16.77;;;15.07;;
1775;SDS011;885;42.626;23.200;2023-02-23T09:50:07;25.77;;;23.07;;
1775;SDS011;885;42.626;23.200;2023-02-23T09:52:43;20.37;;;17.90;;
1775;SDS011;885;42.626;23.200;2023-02-23T09:55:13;28.93;;;21.90;;
1775;SDS011;885;42.626;23.200;2023-02-23T09:57:43;33.00;;;25.03;;
1775;SDS011;885;42.626;23.200;2023-02-23T10:00:14;15.87;;;13.60;;
1775;SDS011;885;42.626;23.200;2023-02-23T10:02:49;17.40;;;13.03;;
1775;SDS011;885;42.626;23.200;2023-02-23T10:05:40;13.33;;;11.63;;
1775;SDS011;885;42.626;23.200;2023-02-23T10:08:15;16.30;;;13.83;;
1775;SDS011;885;42.626;23.200;2023-02-23T10:10:48;15.00;;;12.10;;
1775;SDS011;885;42.626;23.200;2023-02-23T10:13:24;12.57;;;10.83;;
1775;SDS011;885;42.626;23.200;2023-02-23T10:15:59;15.30;;;10.33;;
1775;SDS011;885;42.626;23.200;2023-02-23T10:18:33;12.77;;;11.50;;
1775;SDS011;885;42.626;23.200;2023-02-23T10:21:06;14.57;;;10.30;;
1775;SDS011;885;42.626;23.200;2023-02-23T10:23:40;14.27;;;11.10;;
1775;SDS011;885;42.626;23.200;2023-02-23T10:26:13;15.53;;;13.23;;
1775;SDS011;885;42.626;23.200;2023-02-23T10:28:45;18.83;;;16.63;;
1775;SDS011;885;42.626;23.200;2023-02-23T10:31:23;12.60;;;11.40;;
1775;SDS011;885;42.626;23.200;2023-02-23T10:33:54;13.00;;;11.00;;
1775;SDS011;885;42.626;23.200;2023-02-23T10:36:28;14.90;;;12.20;;
1775;SDS011;885;42.626;23.200;2023-02-23T10:39:00;13.87;;;10.30;;
1775;SDS011;885;42.626;23.200;2023-02-23T10:41:30;12.50;;;10.87;;
1775;SDS011;885;42.626;23.200;2023-02-23T10:43:59;15.33;;;12.10;;
1775;SDS011;885;42.626;23.200;2023-02-23T10:46:27;12.13;;;11.03;;
1775;SDS011;885;42.626;23.200;2023-02-23T10:49:00;15.90;;;11.10;;
1775;SDS011;885;42.626;23.200;2023-02-23T10:51:29;13.90;;;12.50;;
1775;SDS011;885;42.626;23.200;2023-02-23T10:54:16;17.07;;;12.13;;
1775;SDS011;885;42.626;23.200;2023-02-23T10:56:59;13.83;;;11.70;;
1775;SDS011;885;42.626;23.200;2023-02-23T10:59:28;14.43;;;11.07;;
1775;SDS011;885;42.626;23.200;2023-02-23T11:01:55;15.67;;;10.97;;
1775;SDS011;885;42.626;23.200;2023-02-23T11:04:23;13.87;;;11.30;;
1775;SDS011;885;42.626;23.200;2023-02-23T11:06:52;11.73;;;10.50;;
1775;SDS011;885;42.626;23.200;2023-02-23T11:09:33;13.97;;;12.40;;
1775;SDS011;885;42.626;23.200;2023-02-23T11:12:02;13.30;;;11.90;;
1775;SDS011;885;42.626;23.200;2023-02-23T11:14:42;14.00;;;12.50;;
1775;SDS011;885;42.626;23.200;2023-02-23T11:17:20;13.50;;;11.70;;
1775;SDS011;885;42.626;23.200;2023-02-23T11:19:51;19.83;;;13.07;;
1775;SDS011;885;42.626;23.200;2023-02-23T11:22:24;21.23;;;12.93;;
1775;SDS011;885;42.626;23.200;2023-02-23T11:24:55;13.83;;;12.33;;
1775;SDS011;885;42.626;23.200;2023-02-23T11:27:23;12.57;;;11.37;;
1775;SDS011;885;42.626;23.200;2023-02-23T11:29:55;14.37;;;12.10;;
1775;SDS011;885;42.626;23.200;2023-02-23T11:32:25;14.20;;;12.70;;
1775;SDS011;885;42.626;23.200;2023-02-23T11:35:11;12.80;;;11.40;;
1775;SDS011;885;42.626;23.200;2023-02-23T11:37:51;16.33;;;14.17;;
1775;SDS011;885;42.626;23.200;2023-02-23T11:40:20;15.73;;;11.83;;
1775;SDS011;885;42.626;23.200;2023-02-23T11:42:52;19.40;;;13.20;;
1775;SDS011;885;42.626;23.200;2023-02-23T11:45:21;14.10;;;12.70;;
1775;SDS011;885;42.626;23.200;2023-02-23T11:47:52;18.47;;;13.40;;
1775;SDS011;885;42.626;23.200;2023-02-23T11:50:22;26.03;;;13.63;;
1775;SDS011;885;42.626;23.200;2023-02-23T11:52:53;14.50;;;13.00;;
1775;SDS011;885;42.626;23.200;2023-02-23T11:55:23;18.30;;;13.23;;
1775;SDS011;885;42.626;23.200;2023-02-23T11:57:51;22.73;;;13.10;;
1775;SDS011;885;42.626;23.200;2023-02-23T12:00:23;12.67;;;10.43;;
1775;SDS011;885;42.626;23.200;2023-02-23T12:02:54;13.63;;;9.97;;
1775;SDS011;885;42.626;23.200;2023-02-23T12:05:24;13.97;;;10.57;;
1775;SDS011;885;42.626;23.200;2023-02-23T12:07:54;11.90;;;10.70;;
1775;SDS011;885;42.626;23.200;2023-02-23T12:10:27;15.50;;;10.33;;
1775;SDS011;885;42.626;23.200;2023-02-23T12:13:01;11.77;;;9.97;;
1775;SDS011;885;42.626;23.200;2023-02-23T12:15:41;14.00;;;11.03;;
1775;SDS011;885;42.626;23.200;2023-02-23T12:18:15;15.30;;;9.77;;
1775;SDS011;885;42.626;23.200;2023-02-23T12:20:49;12.30;;;11.10;;
1775;SDS011;885;42.626;23.200;2023-02-23T12:23:20;11.10;;;9.30;;
1775;SDS011;885;42.626;23.200;2023-02-23T12:25:53;15.00;;;9.83;;
1775;SDS011;885;42.626;23.200;2023-02-23T12:28:25;13.27;;;9.00;;
1775;SDS011;885;42.626;23.200;2023-02-23T12:30:59;14.73;;;12.23;;
1775;SDS011;885;42.626;23.200;2023-02-23T12:33:33;10.53;;;9.43;;
1775;SDS011;885;42.626;23.200;2023-02-23T12:36:08;14.07;;;10.03;;
1775;SDS011;885;42.626;23.200;2023-02-23T12:38:44;14.10;;;9.63;;
1775;SDS011;885;42.626;23.200;2023-02-23T12:41:17;13.07;;;9.53;;
1775;SDS011;885;42.626;23.200;2023-02-23T12:43:51;13.33;;;10.00;;
1775;SDS011;885;42.626;23.200;2023-02-23T12:46:25;10.40;;;8.57;;
1775;SDS011;885;42.626;23.200;2023-02-23T12:49:00;11.23;;;9.97;;
1775;SDS011;885;42.626;23.200;2023-02-23T12:51:32;10.87;;;8.33;;
1775;SDS011;885;42.626;23.200;2023-02-23T12:54:03;16.47;;;10.40;;
1775;SDS011;885;42.626;23.200;2023-02-23T12:56:32;12.10;;;9.93;;
1775;SDS011;885;42.626;23.200;2023-02-23T12:59:15;14.63;;;9.80;;
1775;SDS011;885;42.626;23.200;2023-02-23T13:01:52;9.07;;;7.53;;
1775;SDS011;885;42.626;23.200;2023-02-23T13:04:30;18.20;;;14.97;;
1775;SDS011;885;42.626;23.200;2023-02-23T13:07:17;15.30;;;13.70;;
1775;SDS011;885;42.626;23.200;2023-02-23T13:09:59;11.00;;;9.13;;
1775;SDS011;885;42.626;23.200;2023-02-23T13:12:36;10.90;;;8.93;;
1775;SDS011;885;42.626;23.200;2023-02-23T13:15:16;8.87;;;7.10;;
1775;SDS011;885;42.626;23.200;2023-02-23T13:17:52;9.73;;;8.73;;
1775;SDS011;885;42.626;23.200;2023-02-23T13:20:26;7.97;;;7.17;;
1775;SDS011;885;42.626;23.200;2023-02-23T13:23:01;8.10;;;7.30;;
1775;SDS011;885;42.626;23.200;2023-02-23T13:25:39;7.63;;;6.80;;
1775;SDS011;885;42.626;23.200;2023-02-23T13:28:14;10.30;;;7.70;;
1775;SDS011;885;42.626;23.200;2023-02-23T13:30:45;14.13;;;7.00;;
1775;SDS011;885;42.626;23.200;2023-02-23T13:33:16;10.43;;;7.40;;
1775;SDS011;885;42.626;23.200;2023-02-23T13:35:50;9.53;;;7.60;;
1775;SDS011;885;42.626;23.200;2023-02-23T13:38:18;11.17;;;8.40;;
1775;SDS011;885;42.626;23.200;2023-02-23T13:40:56;9.17;;;8.07;;
1775;SDS011;885;42.626;23.200;2023-02-23T13:43:31;9.93;;;7.40;;
1775;SDS011;885;42.626;23.200;2023-02-23T13:46:10;10.30;;;7.93;;
1775;SDS011;885;42.626;23.200;2023-02-23T13:48:49;10.67;;;8.37;;
1775;SDS011;885;42.626;23.200;2023-02-23T13:51:22;8.57;;;7.20;;
1775;SDS011;885;42.626;23.200;2023-02-23T13:53:59;11.43;;;7.57;;
1775;SDS011;885;42.626;23.200;2023-02-23T13:56:29;12.53;;;8.30;;
1775;SDS011;885;42.626;23.200;2023-02-23T13:59:00;14.50;;;9.37;;
1775;SDS011;885;42.626;23.200;2023-02-23T14:01:34;9.37;;;8.43;;
1775;SDS011;885;42.626;23.200;2023-02-23T14:04:04;9.27;;;8.30;;
1775;SDS011;885;42.626;23.200;2023-02-23T14:06:36;11.57;;;9.10;;
1775;SDS011;885;42.626;23.200;2023-02-23T14:09:06;12.43;;;8.40;;
1775;SDS011;885;42.626;23.200;2023-02-23T14:11:40;10.37;;;8.97;;
1775;SDS011;885;42.626;23.200;2023-02-23T14:14:11;8.70;;;7.60;;
1775;SDS011;885;42.626;23.200;2023-02-23T14:16:41;16.83;;;9.37;;
1775;SDS011;885;42.626;23.200;2023-02-23T14:22:01;12.10;;;7.70;;
1775;SDS011;885;42.626;23.200;2023-02-23T14:24:31;11.60;;;7.23;;
1775;SDS011;885;42.626;23.200;2023-02-23T14:27:10;9.00;;;6.60;;
1775;SDS011;885;42.626;23.200;2023-02-23T14:30:07;10.20;;;8.60;;
1775;SDS011;885;42.626;23.200;2023-02-23T14:32:51;8.93;;;6.80;;
1775;SDS011;885;42.626;23.200;2023-02-23T14:38:27;11.33;;;8.57;;
1775;SDS011;885;42.626;23.200;2023-02-23T14:40:58;10.70;;;7.23;;
1775;SDS011;885;42.626;23.200;2023-02-23T14:43:31;7.53;;;6.00;;
1775;SDS011;885;42.626;23.200;2023-02-23T14:46:07;7.63;;;6.90;;
1775;SDS011;885;42.626;23.200;2023-02-23T14:48:37;11.73;;;9.47;;
1775;SDS011;885;42.626;23.200;2023-02-23T14:51:12;15.47;;;8.10;;
1775;SDS011;885;42.626;23.200;2023-02-23T14:53:46;11.50;;;8.77;;
1775;SDS011;885;42.626;23.200;2023-02-23T14:56:17;7.47;;;6.67;;
1775;SDS011;885;42.626;23.200;2023-02-23T14:58:48;12.70;;;10.30;;
1775;SDS011;885;42.626;23.200;2023-02-23T15:01:30;8.73;;;7.83;;
1775;SDS011;885;42.626;23.200;2023-02-23T15:04:05;7.60;;;6.80;;
1775;SDS011;885;42.626;23.200;2023-02-23T15:06:38;9.07;;;8.17;;
1775;SDS011;885;42.626;23.200;2023-02-23T15:09:06;10.60;;;6.77;;
1775;SDS011;885;42.626;23.200;2023-02-23T15:11:40;11.00;;;6.67;;
1775;SDS011;885;42.626;23.200;2023-02-23T15:14:11;10.00;;;8.40;;
1775;SDS011;885;42.626;23.200;2023-02-23T15:16:40;18.90;;;14.13;;
1775;SDS011;885;42.626;23.200;2023-02-23T15:19:09;14.73;;;9.20;;
1775;SDS011;885;42.626;23.200;2023-02-23T15:21:43;14.00;;;9.90;;
1775;SDS011;885;42.626;23.200;2023-02-23T15:24:15;9.57;;;8.20;;
1775;SDS011;885;42.626;23.200;2023-02-23T15:26:45;10.63;;;7.97;;
1775;SDS011;885;42.626;23.200;2023-02-23T15:29:14;12.10;;;9.40;;
1775;SDS011;885;42.626;23.200;2023-02-23T15:31:43;11.90;;;10.63;;
1775;SDS011;885;42.626;23.200;2023-02-23T15:34:15;17.03;;;11.30;;
1775;SDS011;885;42.626;23.200;2023-02-23T15:36:45;11.60;;;9.27;;
1775;SDS011;885;42.626;23.200;2023-02-23T15:39:17;13.47;;;9.50;;
1775;SDS011;885;42.626;23.200;2023-02-23T15:41:47;11.27;;;8.77;;
1775;SDS011;885;42.626;23.200;2023-02-23T15:44:17;12.17;;;8.27;;
1775;SDS011;885;42.626;23.200;2023-02-23T15:46:48;12.73;;;10.90;;
1775;SDS011;885;42.626;23.200;2023-02-23T15:49:19;8.90;;;7.77;;